Time;durP1;ratioP1;P1;durP2;ratioP2;P2;SDS_P1;SDS_P2;PMS_P1;PMS_P2;Temp;Humidity;BMP_temperature;BMP_pressure;BME280_temperature;BME280_humidity;BME280_pressure;Samples;Min_cycle;Max_cycle;Signal;HPM_P1;HPM_P2
2022/11/09 00:00:38;;;;;;;39.50;22.75;;;;;;;8.39;100.00;62863.19;5113702;28;20566;-77
2022/11/09 00:03:05;;;;;;;29.90;20.50;;;;;;;8.35;100.00;62859.56;5105517;28;20220;-75
2022/11/09 00:05:32;;;;;;;33.45;20.55;;;;;;;8.23;100.00;62846.63;5123078;28;20191;-76
2022/11/09 00:07:58;;;;;;;35.53;22.00;;;;;;;8.26;100.00;62849.75;5114916;28;20653;-76
2022/11/09 00:10:27;;;;;;;34.95;21.58;;;;;;;8.09;100.00;62832.69;5117105;28;20196;-75
2022/11/09 00:12:54;;;;;;;41.28;23.88;;;;;;;8.18;100.00;62845.03;5124232;28;20191;-76
2022/11/09 00:15:21;;;;;;;37.22;22.17;;;;;;;8.24;100.00;62842.59;5122711;28;20200;-77
2022/11/09 00:17:48;;;;;;;36.70;23.05;;;;;;;8.18;100.00;62841.97;5122914;28;20203;-77
2022/11/09 00:20:15;;;;;;;39.58;22.75;;;;;;;8.25;100.00;62848.72;5115582;28;20208;-77
2022/11/09 00:22:42;;;;;;;39.47;21.88;;;;;;;8.19;100.00;62841.00;5104981;28;20551;-76
2022/11/09 00:25:09;;;;;;;37.22;22.75;;;;;;;8.21;100.00;62843.06;5126252;28;20552;-76
2022/11/09 00:27:37;;;;;;;40.03;23.35;;;;;;;8.06;100.00;62827.56;5107738;28;20200;-78
2022/11/09 00:30:06;;;;;;;41.72;23.98;;;;;;;8.08;100.00;62834.19;5106147;28;20196;-78
2022/11/09 00:32:33;;;;;;;40.28;23.20;;;;;;;8.08;100.00;62827.09;5118764;28;20195;-79
2022/11/09 00:35:00;;;;;;;39.97;23.55;;;;;;;8.11;100.00;62832.22;5123730;28;20408;-76
2022/11/09 00:37:29;;;;;;;35.97;22.88;;;;;;;8.10;100.00;62829.16;5108921;28;20196;-76
2022/11/09 00:39:56;;;;;;;37.85;24.27;;;;;;;8.10;100.00;62834.25;5113184;28;20207;-76
2022/11/09 00:42:23;;;;;;;37.63;23.95;;;;;;;8.11;100.00;62834.75;5127957;28;20538;-77
2022/11/09 00:44:51;;;;;;;39.83;23.95;;;;;;;8.12;100.00;62836.31;5119096;28;20408;-76
2022/11/09 00:47:18;;;;;;;41.75;23.50;;;;;;;8.12;100.00;62833.78;5114445;28;20201;-76
2022/11/09 00:49:45;;;;;;;43.75;22.25;;;;;;;8.14;100.00;62835.31;5127181;28;20270;-76
2022/11/09 00:52:12;;;;;;;37.67;23.60;;;;;;;8.15;100.00;62836.34;5128497;28;20202;-75
2022/11/09 00:54:39;;;;;;;35.15;23.75;;;;;;;8.13;100.00;62836.81;5129351;28;20291;-77
2022/11/09 00:57:06;;;;;;;35.08;23.35;;;;;;;8.14;100.00;62837.84;5121111;28;20198;-77
2022/11/09 00:59:33;;;;;;;38.25;22.95;;;;;;;8.07;100.00;62833.69;5130633;28;20226;-77
2022/11/09 01:02:01;;;;;;;40.83;24.45;;;;;;;8.11;100.00;62832.72;5113046;28;20231;-76
2022/11/09 01:04:28;;;;;;;37.05;22.75;;;;;;;8.18;100.00;62839.97;5124144;28;20223;-77
2022/11/09 01:06:55;;;;;;;37.67;23.63;;;;;;;8.14;100.00;62835.81;5122219;28;20198;-76
2022/11/09 01:09:22;;;;;;;40.35;22.83;;;;;;;8.14;100.00;62833.28;5126474;28;20220;-76
2022/11/09 01:11:49;;;;;;;42.97;24.90;;;;;;;8.15;100.00;62841.94;5121157;28;20273;-77
2022/11/09 01:14:15;;;;;;;40.42;23.35;;;;;;;8.19;100.00;62841.00;5110565;28;20421;-77
2022/11/09 01:16:42;;;;;;;38.40;24.92;;;;;;;8.17;100.00;62841.47;5106762;28;20396;-76
2022/11/09 01:19:11;;;;;;;37.45;23.65;;;;;;;8.16;100.00;62842.97;5107856;28;20251;-76
2022/11/09 01:21:38;;;;;;;36.80;23.98;;;;;;;8.13;100.00;62837.34;5123928;28;20231;-77
2022/11/09 01:24:05;;;;;;;43.70;24.17;;;;;;;8.14;100.00;62837.84;5131124;27;20225;-76
2022/11/09 01:26:32;;;;;;;37.97;23.40;;;;;;;8.13;100.00;62832.25;5123050;28;20203;-76
2022/11/09 01:28:59;;;;;;;40.70;23.83;;;;;;;8.14;100.00;62838.34;5132529;28;20253;-77
2022/11/09 01:31:26;;;;;;;45.95;24.55;;;;;;;8.18;100.00;62834.88;5130602;27;20200;-76
2022/11/09 01:33:53;;;;;;;35.10;23.38;;;;;;;8.14;100.00;62835.81;5131350;28;20215;-75
2022/11/09 01:36:23;;;;;;;35.22;23.08;;;;;;;8.14;100.00;62833.28;5131770;27;20203;-76
2022/11/09 01:38:50;;;;;;;41.08;24.50;;;;;;;8.17;100.00;62841.47;5128720;28;20214;-77
2022/11/09 01:41:20;;;;;;;38.28;24.10;;;;;;;8.15;100.00;62833.81;5113885;28;20534;-75
2022/11/09 01:44:11;;;;;;;39.42;24.42;;;;;;;8.22;100.00;62843.56;5109370;28;20268;-76
2022/11/09 01:46:45;;;;;;;38.70;22.15;;;;;;;8.18;100.00;62839.97;5113596;28;20200;-76
2022/11/09 01:49:18;;;;;;;41.35;23.75;;;;;;;8.15;100.00;62838.88;5122338;27;20277;-76
2022/11/09 01:51:52;;;;;;;38.17;24.00;;;;;;;8.18;100.00;62845.03;5125837;28;20211;-75
2022/11/09 01:54:22;;;;;;;37.92;24.17;;;;;;;8.19;100.00;62841.00;5127864;28;20450;-76
2022/11/09 01:56:53;;;;;;;41.72;23.55;;;;;;;8.21;100.00;62843.06;5117878;27;20200;-76
2022/11/09 01:59:23;;;;;;;37.60;24.38;;;;;;;8.26;100.00;62844.69;5111921;28;20546;-75
2022/11/09 02:01:51;;;;;;;41.55;25.23;;;;;;;8.29;100.00;62853.38;5115345;28;20227;-76
2022/11/09 02:04:22;;;;;;;42.33;24.65;;;;;;;8.28;100.00;62847.25;5105961;28;20261;-77
2022/11/09 02:06:51;;;;;;;43.47;24.45;;;;;;;8.30;100.00;62851.84;5117252;28;20202;-76
2022/11/09 02:09:26;;;;;;;40.15;25.70;;;;;;;8.38;100.00;62862.66;5127480;28;20692;-77
2022/11/09 02:11:53;;;;;;;46.50;26.23;;;;;;;8.37;100.00;62861.63;5126808;28;20239;-76
2022/11/09 02:14:22;;;;;;;37.53;22.70;;;;;;;8.37;100.00;62861.13;5121523;27;20219;-76
2022/11/09 02:16:49;;;;;;;36.65;23.90;;;;;;;8.25;100.00;62849.22;5107506;27;20200;-76
2022/11/09 02:19:16;;;;;;;33.92;22.25;;;;;;;8.24;100.00;62845.66;5108631;28;20264;-76
2022/11/09 02:21:45;;;;;;;37.33;21.50;;;;;;;7.95;100.00;62815.69;5125023;28;20241;-76
2022/11/09 02:24:12;;;;;;;35.83;21.00;;;;;;;7.88;100.00;62813.53;5115132;28;20217;-76
2022/11/09 02:26:43;;;;;;;42.78;22.33;;;;;;;7.93;100.00;62814.16;5113020;28;20200;-76
2022/11/09 02:29:14;;;;;;;40.33;22.88;;;;;;;7.94;100.00;62819.72;5111142;28;20211;-76
2022/11/09 02:31:46;;;;;;;34.50;21.52;;;;;;;7.96;100.00;62819.78;5126530;28;20519;-76
2022/11/09 02:34:16;;;;;;;36.28;20.67;;;;;;;7.86;100.00;62809.47;5115887;28;20215;-76
2022/11/09 02:36:45;;;;;;;37.15;23.00;;;;;;;7.84;100.00;62804.34;5112770;28;20196;-76
2022/11/09 02:39:14;;;;;;;41.90;22.17;;;;;;;7.75;100.00;62795.56;5107203;28;20224;-76
2022/11/09 02:41:44;;;;;;;33.42;21.80;;;;;;;7.79;100.00;62799.69;5122789;28;20235;-77
2022/11/09 02:44:11;;;;;;;32.35;21.25;;;;;;;7.81;100.00;62801.25;5110663;28;20228;-77
2022/11/09 02:46:38;;;;;;;36.63;22.90;;;;;;;7.85;100.00;62807.91;5116999;28;20207;-77
2022/11/09 02:49:05;;;;;;;42.38;22.55;;;;;;;7.88;100.00;62805.94;5108750;28;20569;-76
2022/11/09 02:51:32;;;;;;;34.33;22.55;;;;;;;7.86;100.00;62806.94;5114820;28;20195;-75
2022/11/09 02:54:00;;;;;;;35.30;22.17;;;;;;;7.79;100.00;62801.72;5125036;28;20439;-77
2022/11/09 02:56:27;;;;;;;34.58;21.92;;;;;;;7.78;100.00;62800.69;5125822;28;20240;-77
2022/11/09 02:58:54;;;;;;;34.47;21.17;;;;;;;7.75;100.00;62795.56;5122992;28;20379;-76
2022/11/09 03:01:21;;;;;;;31.75;19.77;;;;;;;7.72;100.00;62797.53;5107254;28;20269;-76
2022/11/09 03:03:48;;;;;;;31.85;20.10;;;;;;;7.73;100.00;62793.50;5103866;28;20279;-77
2022/11/09 03:06:15;;;;;;;35.17;21.27;;;;;;;7.67;100.00;62789.84;5106467;28;20233;-77
2022/11/09 03:08:42;;;;;;;30.80;20.33;;;;;;;7.62;100.00;62782.16;5109793;28;20238;-78
2022/11/09 03:11:10;;;;;;;31.38;19.30;;;;;;;7.63;100.00;62782.66;5125244;28;20203;-76
2022/11/09 03:13:37;;;;;;;28.05;19.90;;;;;;;7.55;100.00;62774.91;5125739;28;20268;-77
2022/11/09 03:16:05;;;;;;;34.13;19.63;;;;;;;7.57;100.00;62774.47;5126179;28;20199;-75
2022/11/09 03:18:32;;;;;;;29.88;20.00;;;;;;;7.54;100.00;62778.94;5107553;28;20231;-75
2022/11/09 03:21:01;;;;;;;32.10;19.60;;;;;;;7.39;100.00;62757.88;5106967;28;20439;-75
2022/11/09 03:23:29;;;;;;;35.78;20.73;;;;;;;7.39;100.00;62760.41;5105440;28;20235;-75
2022/11/09 03:25:55;;;;;;;32.17;21.35;;;;;;;7.40;100.00;62758.94;5105849;28;20238;-75
2022/11/09 03:28:24;;;;;;;32.17;20.60;;;;;;;7.32;100.00;62748.66;5121563;28;20223;-77
2022/11/09 03:30:50;;;;;;;33.53;20.33;;;;;;;7.35;100.00;62751.22;5107039;28;20257;-76
2022/11/09 03:33:18;;;;;;;30.25;19.92;;;;;;;7.35;100.00;62756.81;5104265;28;20257;-76
2022/11/09 03:35:44;;;;;;;35.05;21.52;;;;;;;7.37;100.00;62753.81;5110969;28;20230;-75
2022/11/09 03:38:12;;;;;;;37.53;21.00;;;;;;;7.37;100.00;62761.41;5121917;28;20210;-77
2022/11/09 03:40:39;;;;;;;32.28;21.20;;;;;;;7.38;100.00;62756.84;5125273;28;20655;-76
2022/11/09 03:43:06;;;;;;;34.75;21.27;;;;;;;7.40;100.00;62761.47;5124573;28;20272;-76
2022/11/09 03:45:34;;;;;;;33.53;21.08;;;;;;;7.41;100.00;62762.47;5112536;28;20333;-77
2022/11/09 03:48:01;;;;;;;29.63;20.15;;;;;;;7.39;100.00;62755.88;5105732;28;20224;-75
2022/11/09 03:50:30;;;;;;;31.35;19.88;;;;;;;7.40;100.00;62759.44;5106007;28;20415;-76
2022/11/09 03:52:57;;;;;;;32.72;21.10;;;;;;;7.45;100.00;62767.13;5103646;28;20192;-76
2022/11/09 03:55:25;;;;;;;33.53;22.02;;;;;;;7.47;100.00;62766.66;5120820;28;20259;-76
2022/11/09 03:57:52;;;;;;;31.02;20.38;;;;;;;7.47;100.00;62766.66;5117047;28;20208;-76
2022/11/09 04:00:22;;;;;;;33.60;21.40;;;;;;;7.38;100.00;62759.91;5107360;28;20258;-75
2022/11/09 04:02:50;;;;;;;32.70;22.17;;;;;;;7.46;100.00;62767.63;5110740;28;20235;-77
2022/11/09 04:05:17;;;;;;;36.85;21.73;;;;;;;7.48;100.00;62767.19;5104434;28;20208;-76
2022/11/09 04:07:48;;;;;;;34.50;21.75;;;;;;;7.49;100.00;62771.25;5103730;28;20200;-75
2022/11/09 04:10:15;;;;;;;30.65;22.05;;;;;;;7.45;100.00;62764.59;5105464;28;20234;-76
2022/11/09 04:12:42;;;;;;;32.40;20.17;;;;;;;7.51;100.00;62773.31;5110666;28;20211;-76
2022/11/09 04:15:09;;;;;;;31.73;20.98;;;;;;;7.50;100.00;62774.84;5123625;28;20338;-75
2022/11/09 04:17:36;;;;;;;34.28;20.17;;;;;;;7.56;100.00;62773.41;5114392;28;20192;-76
2022/11/09 04:20:05;;;;;;;36.15;21.52;;;;;;;7.58;100.00;62778.00;5106617;28;20353;-76
2022/11/09 04:22:32;;;;;;;34.28;20.67;;;;;;;7.59;100.00;62781.06;5119215;28;20290;-76
2022/11/09 04:24:59;;;;;;;33.67;19.95;;;;;;;7.60;100.00;62784.63;5126587;28;20219;-75
2022/11/09 04:27:26;;;;;;;32.92;22.08;;;;;;;7.58;100.00;62777.50;5102978;28;20396;-76
2022/11/09 04:29:52;;;;;;;33.42;21.80;;;;;;;7.58;100.00;62783.09;5103090;28;20215;-76
2022/11/09 04:32:19;;;;;;;34.17;19.92;;;;;;;7.59;100.00;62778.53;5119875;28;20203;-76
2022/11/09 04:34:46;;;;;;;30.10;19.65;;;;;;;7.60;100.00;62779.56;5103748;28;20215;-76
2022/11/09 04:37:14;;;;;;;32.83;21.25;;;;;;;7.58;100.00;62780.56;5113825;28;20203;-76
2022/11/09 04:39:41;;;;;;;29.73;19.33;;;;;;;7.58;100.00;62780.03;5106084;28;20230;-76
2022/11/09 04:42:08;;;;;;;29.15;19.23;;;;;;;7.59;100.00;62779.03;5119790;28;20227;-76
2022/11/09 04:44:35;;;;;;;30.27;19.35;;;;;;;7.57;100.00;62776.47;5123966;28;20261;-75
2022/11/09 04:47:01;;;;;;;33.95;20.20;;;;;;;7.52;100.00;62773.84;5124338;28;20195;-76
2022/11/09 04:49:28;;;;;;;35.55;21.48;;;;;;;7.56;100.00;62772.91;5118521;28;20401;-76
2022/11/09 04:51:55;;;;;;;35.08;20.92;;;;;;;7.47;100.00;62764.13;5103272;28;20204;-75
2022/11/09 04:54:23;;;;;;;35.17;20.45;;;;;;;7.51;100.00;62770.78;5104749;28;20249;-76
2022/11/09 04:56:50;;;;;;;30.10;19.25;;;;;;;7.47;100.00;62769.19;5111274;28;20391;-76
2022/11/09 04:59:16;;;;;;;29.23;20.00;;;;;;;7.44;100.00;62758.00;5112957;28;20231;-75
2022/11/09 05:01:43;;;;;;;32.03;20.40;;;;;;;7.40;100.00;62764.00;5124751;28;20400;-75
2022/11/09 05:04:10;;;;;;;35.67;21.38;;;;;;;7.43;100.00;62760.00;5123896;28;20221;-76
2022/11/09 05:06:37;;;;;;;39.95;21.67;;;;;;;7.43;100.00;62765.06;5123130;28;20260;-75
2022/11/09 05:09:06;;;;;;;31.30;19.73;;;;;;;7.44;100.00;62760.53;5118028;28;20221;-76
2022/11/09 05:11:35;;;;;;;30.67;20.30;;;;;;;7.47;100.00;62771.22;5123381;28;20195;-77
2022/11/09 05:14:02;;;;;;;37.20;19.95;;;;;;;7.49;100.00;62770.75;5116590;28;20220;-76
2022/11/09 05:16:30;;;;;;;30.48;20.83;;;;;;;7.48;100.00;62770.22;5106216;28;20208;-76
2022/11/09 05:18:56;;;;;;;35.63;21.73;;;;;;;7.48;100.00;62762.63;5120077;28;20231;-76
2022/11/09 05:21:23;;;;;;;36.03;21.23;;;;;;;7.48;100.00;62772.75;5113446;28;20229;-76
2022/11/09 05:23:58;;;;;;;30.52;19.95;;;;;;;7.49;100.00;62773.28;5126964;27;20408;-76
2022/11/09 05:26:30;;;;;;;32.08;20.70;;;;;;;7.50;100.00;62769.75;5125344;28;20202;-77
2022/11/09 05:28:59;;;;;;;30.48;20.10;;;;;;;7.50;100.00;62772.28;5127245;28;20215;-76
2022/11/09 05:31:26;;;;;;;31.80;19.80;;;;;;;7.55;100.00;62779.47;5125568;28;20375;-78
2022/11/09 05:33:54;;;;;;;29.65;19.38;;;;;;;7.55;100.00;62774.91;5119089;28;20215;-76
2022/11/09 05:36:21;;;;;;;28.23;18.20;;;;;;;7.57;100.00;62781.53;5117092;28;20196;-77
2022/11/09 05:38:49;;;;;;;33.67;21.35;;;;;;;7.54;100.00;62776.41;5109966;28;20216;-78
2022/11/09 05:41:16;;;;;;;29.20;19.25;;;;;;;7.59;100.00;62778.53;5109793;28;20200;-76
2022/11/09 05:43:44;;;;;;;32.20;20.25;;;;;;;7.62;100.00;62782.16;5105691;28;20336;-77
2022/11/09 05:46:13;;;;;;;30.55;20.25;;;;;;;7.67;100.00;62789.84;5112481;28;20242;-77
2022/11/09 05:48:40;;;;;;;30.48;18.83;;;;;;;7.72;100.00;62791.94;5115966;28;20219;-77
2022/11/09 05:51:09;;;;;;;30.83;19.60;;;;;;;7.73;100.00;62796.03;5112164;28;20199;-78
2022/11/09 05:53:36;;;;;;;29.48;19.42;;;;;;;7.76;100.00;62801.66;5122431;28;20248;-77
2022/11/09 05:56:04;;;;;;;31.33;20.00;;;;;;;7.80;100.00;62802.75;5107910;28;20225;-76
2022/11/09 05:58:35;;;;;;;27.90;19.08;;;;;;;7.83;100.00;62800.78;5105651;28;20227;-77
2022/11/09 06:01:03;;;;;;;27.83;19.58;;;;;;;7.93;100.00;62814.16;5106693;28;20231;-78
2022/11/09 06:03:32;;;;;;;30.48;19.88;;;;;;;8.04;100.00;62827.53;5108921;28;20257;-76
2022/11/09 06:06:01;;;;;;;33.53;21.58;;;;;;;8.17;100.00;62844.00;5105741;28;20192;-77
2022/11/09 06:08:28;;;;;;;33.53;20.58;;;;;;;8.31;100.00;62854.91;5111020;28;20215;-78
2022/11/09 06:10:59;;;;;;;34.35;20.15;;;;;;;8.47;100.00;62869.44;5106971;28;20229;-77
2022/11/09 06:13:26;;;;;;;33.60;21.48;;;;;;;8.69;100.00;62889.63;5107291;28;20239;-78
2022/11/09 06:15:54;;;;;;;36.00;21.33;;;;;;;8.89;100.00;62917.88;5124928;28;20195;-78
2022/11/09 06:18:21;;;;;;;34.90;22.75;;;;;;;9.08;100.00;62932.44;5126284;28;20290;-77
2022/11/09 06:20:52;;;;;;;39.50;23.58;;;;;;;9.30;100.00;62957.72;5126660;28;20217;-76
2022/11/09 06:23:24;;;;;;;37.60;22.13;;;;;;;9.56;100.00;62984.09;5127280;28;20280;-79
2022/11/09 06:25:51;;;;;;;36.47;23.23;;;;;;;9.85;100.00;63011.56;5125299;28;20258;-78
2022/11/09 06:28:18;;;;;;;37.08;24.15;;;;;;;9.91;100.00;63014.69;5126578;28;20223;-77
2022/11/09 06:30:45;;;;;;;41.97;24.05;;;;;;;9.99;100.00;63020.44;5126606;28;20198;-78
2022/11/09 06:33:12;;;;;;;36.55;24.58;;;;;;;10.05;100.00;63031.72;5127598;28;20241;-77
2022/11/09 06:35:39;;;;;;;31.80;21.85;;;;;;;10.24;100.00;63049.38;5118938;28;20204;-77
2022/11/09 06:38:09;;;;;;;45.38;22.92;;;;;;;10.21;100.00;63053.38;5106375;28;20258;-77
2022/11/09 06:40:38;;;;;;;34.95;22.08;;;;;;;10.31;100.00;63061.72;5106887;28;20203;-78
2022/11/09 06:43:05;;;;;;;37.92;22.88;;;;;;;10.29;100.00;63057.09;5106843;28;20246;-78
2022/11/09 06:45:32;;;;;;;36.85;23.95;;;;;;;10.33;100.00;63061.22;5120427;28;20496;-77
2022/11/09 06:48:01;;;;;;;43.88;24.75;;;;;;;10.37;100.00;63065.34;5114237;28;20608;-77
2022/11/09 06:50:31;;;;;;;37.33;22.52;;;;;;;10.46;100.00;63076.69;5121678;28;20196;-78
2022/11/09 06:52:59;;;;;;;38.65;22.80;;;;;;;10.51;100.00;63081.38;5107064;28;20194;-77
2022/11/09 06:55:28;;;;;;;37.63;22.63;;;;;;;10.56;100.00;63084.00;5106395;28;20414;-77
2022/11/09 06:57:56;;;;;;;38.08;22.75;;;;;;;10.54;100.00;63081.94;5110488;28;20488;-77
2022/11/09 07:00:24;;;;;;;43.13;23.83;;;;;;;10.31;100.00;63061.19;5111953;28;20203;-78
2022/11/09 07:02:51;;;;;;;36.40;22.08;;;;;;;10.29;100.00;63061.66;5106195;28;20262;-77
2022/11/09 07:05:18;;;;;;;40.05;24.10;;;;;;;10.22;100.00;63051.88;5105460;28;20196;-76
2022/11/09 07:07:45;;;;;;;38.67;24.52;;;;;;;10.34;100.00;63061.75;5118690;28;20195;-77
2022/11/09 07:10:12;;;;;;;38.83;23.40;;;;;;;10.41;100.00;63072.06;5105645;28;20222;-78
2022/11/09 07:12:41;;;;;;;47.00;24.27;;;;;;;10.37;100.00;63067.41;5105705;28;20411;-77
2022/11/09 07:15:08;;;;;;;38.97;22.92;;;;;;;10.41;100.00;63068.97;5116969;28;20479;-77
2022/11/09 07:17:35;;;;;;;41.67;23.92;;;;;;;10.48;100.00;63079.28;5113226;28;20196;-77
2022/11/09 07:20:04;;;;;;;39.78;23.17;;;;;;;10.43;100.00;63076.66;5104667;28;20241;-78
2022/11/09 07:22:33;;;;;;;41.05;24.23;;;;;;;10.51;100.00;63081.88;5107569;28;20192;-77
2022/11/09 07:25:00;;;;;;;43.63;25.88;;;;;;;10.53;100.00;63083.94;5104997;28;20216;-77
2022/11/09 07:27:27;;;;;;;43.90;23.50;;;;;;;10.56;100.00;63084.00;5106529;28;20449;-76
2022/11/09 07:29:55;;;;;;;40.30;24.02;;;;;;;10.51;100.00;63078.81;5106249;28;20216;-78
2022/11/09 07:32:22;;;;;;;36.42;22.70;;;;;;;10.71;100.00;63100.03;5106812;28;20224;-77
2022/11/09 07:34:49;;;;;;;38.85;22.42;;;;;;;10.82;100.00;63116.50;5111254;28;20216;-77
2022/11/09 07:37:16;;;;;;;35.08;22.50;;;;;;;10.73;100.00;63104.13;5107209;28;20412;-77
2022/11/09 07:39:42;;;;;;;39.40;22.15;;;;;;;10.73;100.00;63104.66;5104750;28;20211;-77
2022/11/09 07:42:09;;;;;;;34.40;21.25;;;;;;;10.94;100.00;63118.75;5122478;28;20192;-78
2022/11/09 07:44:36;;;;;;;34.67;22.08;;;;;;;10.99;100.00;63131.06;5125953;28;20458;-77
2022/11/09 07:47:04;;;;;;;37.05;24.58;;;;;;;10.99;100.00;63131.06;5126568;28;20417;-78
2022/11/09 07:49:31;;;;;;;42.45;24.30;;;;;;;10.99;100.00;63128.50;5120606;28;20253;-76
2022/11/09 07:51:58;;;;;;;41.10;23.38;;;;;;;11.08;100.00;63143.44;5104851;28;20210;-77
2022/11/09 07:54:25;;;;;;;38.00;23.50;;;;;;;11.10;100.00;63142.97;5104656;28;20285;-78
2022/11/09 07:56:52;;;;;;;38.47;24.23;;;;;;;11.22;100.00;63149.75;5105146;28;20195;-78
2022/11/09 07:59:19;;;;;;;38.33;23.00;;;;;;;11.26;100.00;63161.56;5104898;28;20242;-77
2022/11/09 08:01:46;;;;;;;40.97;23.95;;;;;;;11.32;100.00;63163.19;5105492;28;20199;-78
2022/11/09 08:04:14;;;;;;;39.42;23.58;;;;;;;11.31;100.00;63159.63;5105772;28;20302;-77
2022/11/09 08:06:41;;;;;;;38.42;23.63;;;;;;;11.32;100.00;63165.75;5108524;28;20533;-78
2022/11/09 08:09:08;;;;;;;45.10;24.63;;;;;;;11.41;100.00;63175.06;5120050;28;20215;-77
2022/11/09 08:11:35;;;;;;;35.25;23.40;;;;;;;11.55;100.00;63192.13;5125425;28;20203;-77
2022/11/09 08:14:01;;;;;;;40.30;22.67;;;;;;;11.67;100.00;63198.41;5124768;27;20444;-79
2022/11/09 08:16:28;;;;;;;36.45;23.45;;;;;;;11.83;100.00;63215.00;5108128;28;20202;-77
2022/11/09 08:18:55;;;;;;;39.63;24.00;;;;;;;11.85;100.00;63219.63;5108403;28;20233;-77
2022/11/09 08:21:23;;;;;;;44.95;23.88;;;;;;;11.83;100.00;63220.63;5125043;28;20226;-77
2022/11/09 08:23:50;;;;;;;39.85;24.55;;;;;;;11.95;100.00;63232.53;5122807;28;20257;-78
2022/11/09 08:26:17;;;;;;;40.50;23.90;;;;;;;12.03;100.00;63236.25;5116817;28;20196;-78
2022/11/09 08:28:44;;;;;;;38.65;24.17;;;;;;;12.03;100.00;63241.34;5106100;28;20400;-77
2022/11/09 08:31:11;;;;;;;36.75;23.27;;;;;;;12.19;100.00;63257.41;5110862;28;20423;-77
2022/11/09 08:33:40;;;;;;;36.33;24.38;;;;;;;12.16;100.00;63252.28;5122053;28;20594;-77
2022/11/09 08:36:12;;;;;;;49.40;27.27;;;;;;;12.40;100.00;63279.19;5117454;28;20196;-77
2022/11/09 08:38:41;;;;;;;40.88;26.20;;;;;;;12.36;100.00;63269.94;5105994;28;20238;-77
2022/11/09 08:41:09;;;;;;;40.95;24.38;;;;;;;12.47;100.00;63278.78;5104352;28;20404;-77
2022/11/09 08:43:36;;;;;;;40.00;24.88;;;;;;;12.56;100.00;63291.19;5106313;28;20298;-78
2022/11/09 08:46:03;;;;;;;41.50;24.13;;;;;;;12.54;100.00;63291.69;5104436;28;20363;-77
2022/11/09 08:48:30;;;;;;;38.30;24.38;;;;;;;12.62;100.00;63294.34;5103583;28;20279;-77
2022/11/09 08:50:59;;;;;;;39.08;24.33;;;;;;;12.75;100.00;63308.31;5107097;28;20191;-77
2022/11/09 08:53:28;;;;;;;39.55;24.17;;;;;;;12.90;100.00;63327.97;5105943;28;20219;-77
2022/11/09 08:55:57;;;;;;;39.58;24.42;;;;;;;12.84;100.00;63322.25;5123033;28;20195;-77
2022/11/09 08:58:23;;;;;;;40.28;24.15;;;;;;;12.64;100.00;63296.41;5128055;28;20215;-77
2022/11/09 09:00:50;;;;;;;39.35;25.73;;;;;;;12.50;100.00;63290.06;5124282;28;20195;-77
2022/11/09 09:03:17;;;;;;;44.95;25.88;;;;;;;12.61;100.00;63296.38;5125364;28;20239;-77
2022/11/09 09:05:44;;;;;;;38.88;25.08;;;;;;;12.82;100.00;63318.16;5110177;28;20191;-77
2022/11/09 09:08:14;;;;;;;45.17;26.45;;;;;;;12.96;100.00;63337.25;5108279;28;20261;-76
2022/11/09 09:10:41;;;;;;;45.17;26.17;;;;;;;13.15;100.00;63351.88;5109437;28;20269;-78
2022/11/09 09:13:09;;;;;;;38.25;24.40;;;;;;;13.10;100.00;63349.25;5114783;28;20230;-77
2022/11/09 09:15:36;;;;;;;37.65;24.00;;;;;;;13.25;100.00;63364.28;5130339;28;20217;-78
2022/11/09 09:18:03;;;;;;;40.40;25.00;;;;;;;13.35;100.00;63374.66;5128020;28;20215;-77
2022/11/09 09:20:30;;;;;;;38.50;24.17;;;;;;;13.49;100.00;63387.16;5115749;28;20204;-77
2022/11/09 09:22:58;;;;;;;38.05;24.75;;;;;;;13.62;100.00;63405.22;5111282;28;20200;-77
2022/11/09 17:02:31;;;;;;;28.88;19.17;;;;;;;10.15;100.00;63042.59;5172608;23;20236;-77
2022/11/09 17:04:58;;;;;;;32.05;19.75;;;;;;;10.16;100.00;63043.63;4965302;28;20279;-76
2022/11/09 17:07:25;;;;;;;31.67;19.55;;;;;;;10.20;100.00;63050.31;4953567;28;20225;-77
2022/11/09 17:09:52;;;;;;;32.20;19.67;;;;;;;10.19;100.00;63044.19;4967170;28;20205;-78
2022/11/09 17:12:19;;;;;;;26.35;18.40;;;;;;;10.19;100.00;63051.31;4963431;28;20450;-77
2022/11/09 17:14:45;;;;;;;29.92;20.65;;;;;;;10.22;100.00;63051.88;4954185;28;20241;-76
2022/11/09 17:17:12;;;;;;;31.35;21.80;;;;;;;10.16;100.00;63046.16;4953526;28;20221;-77
2022/11/09 17:19:41;;;;;;;29.50;20.10;;;;;;;10.22;100.00;63046.78;4963560;28;20205;-77
2022/11/09 17:22:07;;;;;;;32.15;19.58;;;;;;;10.21;100.00;63051.38;4963080;28;20400;-77
2022/11/09 17:24:34;;;;;;;28.98;19.75;;;;;;;10.27;100.00;63064.66;4970208;28;20243;-74
2022/11/09 17:27:01;;;;;;;31.60;21.05;;;;;;;10.32;100.00;63064.75;4965868;28;20394;-76
2022/11/09 17:29:28;;;;;;;29.58;20.85;;;;;;;10.38;100.00;63063.84;4952873;28;20228;-76
2022/11/09 17:32:01;;;;;;;29.90;19.20;;;;;;;10.45;100.00;63070.59;4904348;29;20223;-76
2022/11/09 17:34:28;;;;;;;29.33;19.67;;;;;;;10.47;100.00;63077.75;4892912;29;20203;-77
2022/11/09 17:36:56;;;;;;;36.60;21.25;;;;;;;10.53;100.00;63083.94;4903873;29;20231;-76
2022/11/09 17:39:23;;;;;;;30.17;21.20;;;;;;;10.54;100.00;63076.84;4913070;29;20199;-76
2022/11/09 17:41:50;;;;;;;26.70;19.45;;;;;;;10.54;100.00;63084.47;4893965;29;20224;-77
2022/11/09 17:44:16;;;;;;;32.03;20.00;;;;;;;10.54;100.00;63089.56;4894851;29;20235;-75
2022/11/09 17:46:43;;;;;;;28.48;20.23;;;;;;;10.53;100.00;63083.94;4910440;29;20237;-77
2022/11/09 17:49:10;;;;;;;33.92;20.52;;;;;;;10.48;100.00;63078.78;4911286;29;20219;-76
2022/11/09 17:51:37;;;;;;;27.45;19.42;;;;;;;10.41;100.00;63072.06;4912453;29;20218;-77
2022/11/09 17:54:06;;;;;;;28.73;19.52;;;;;;;10.38;100.00;63063.34;4908217;29;20400;-76
2022/11/09 17:56:39;;;;;;;29.63;19.85;;;;;;;10.35;100.00;63065.31;4893249;29;20230;-81
2022/11/09 17:59:06;;;;;;;31.55;21.65;;;;;;;10.32;100.00;63062.22;4895474;29;20222;-77
2022/11/09 18:01:32;;;;;;;30.23;21.27;;;;;;;10.31;100.00;63061.19;4892322;29;20258;-77
2022/11/09 18:03:59;;;;;;;34.45;23.77;;;;;;;10.24;100.00;63051.41;4901273;29;20274;-76
2022/11/09 18:06:28;;;;;;;31.50;21.88;;;;;;;10.23;100.00;63053.41;4913589;29;20233;-76
2022/11/09 18:08:55;;;;;;;35.88;25.00;;;;;;;10.23;100.00;63055.47;4892628;29;20211;-76
2022/11/09 18:11:23;;;;;;;35.00;22.45;;;;;;;10.30;100.00;63060.16;4893153;29;20268;-77
2022/11/09 18:13:50;;;;;;;31.55;20.73;;;;;;;10.21;100.00;63048.81;4907687;29;20259;-77
2022/11/09 18:16:19;;;;;;;28.80;21.50;;;;;;;10.13;100.00;63035.44;4909319;29;20229;-77
2022/11/09 18:18:46;;;;;;;28.35;20.17;;;;;;;10.09;100.00;63035.88;4911494;29;20233;-76
2022/11/09 18:21:15;;;;;;;30.33;20.52;;;;;;;10.02;100.00;63026.06;4914468;29;20222;-76
2022/11/09 18:23:43;;;;;;;35.65;20.92;;;;;;;9.95;100.00;63024.44;4910924;29;20499;-76
2022/11/09 18:26:11;;;;;;;39.65;22.08;;;;;;;9.96;100.00;63022.94;4901578;29;20338;-77
2022/11/09 18:28:40;;;;;;;34.92;22.80;;;;;;;9.95;100.00;63026.97;4891342;29;20200;-77
2022/11/09 18:31:09;;;;;;;31.92;20.73;;;;;;;10.00;100.00;63024.00;4901605;29;20230;-76
2022/11/09 18:33:37;;;;;;;29.95;20.08;;;;;;;9.98;100.00;63027.00;4911698;29;20209;-76
2022/11/09 18:36:07;;;;;;;30.52;20.20;;;;;;;9.98;100.00;63027.53;4896472;29;20417;-77
2022/11/09 18:38:34;;;;;;;28.50;20.52;;;;;;;10.02;100.00;63028.63;4892811;29;20393;-77
2022/11/09 18:41:05;;;;;;;31.25;20.30;;;;;;;10.05;100.00;63034.25;4910862;29;20235;-75
2022/11/09 18:43:32;;;;;;;33.25;21.48;;;;;;;9.97;100.00;63023.44;4909684;29;20226;-77
2022/11/09 18:46:04;;;;;;;29.05;19.85;;;;;;;10.00;100.00;63027.06;4910471;29;20242;-76
2022/11/09 18:48:32;;;;;;;23.70;18.98;;;;;;;9.91;100.00;63019.78;4910507;29;20199;-76
2022/11/09 18:51:01;;;;;;;30.58;20.15;;;;;;;9.87;100.00;63008.53;4912036;29;20222;-79
2022/11/09 18:53:37;;;;;;;30.38;20.83;;;;;;;9.87;100.00;63013.09;4910820;29;20226;-77